sensor_id;sensor_type;location;lat;lon;timestamp;pressure;altitude;pressure_sealevel;temperature;humidity
21706;BME280;11014;53.076;18.208;2024-03-07T00:00:20;102539.38;;;1.52;62.59
21706;BME280;11014;53.076;18.208;2024-03-07T00:03:36;102538.41;;;1.64;62.60
21706;BME280;11014;53.076;18.208;2024-03-07T00:06:04;102542.13;;;1.50;62.57
21706;BME280;11014;53.076;18.208;2024-03-07T00:08:34;102544.69;;;1.52;62.53
21706;BME280;11014;53.076;18.208;2024-03-07T00:11:02;102543.00;;;1.51;62.75
21706;BME280;11014;53.076;18.208;2024-03-07T00:13:31;102544.94;;;1.49;62.68
21706;BME280;11014;53.076;18.208;2024-03-07T00:15:59;102538.78;;;1.48;62.86
21706;BME280;11014;53.076;18.208;2024-03-07T00:18:28;102540.59;;;1.48;62.89
21706;BME280;11014;53.076;18.208;2024-03-07T00:20:56;102534.56;;;1.46;62.67
21706;BME280;11014;53.076;18.208;2024-03-07T00:23:25;102539.16;;;1.44;62.56
21706;BME280;11014;53.076;18.208;2024-03-07T00:25:55;102535.81;;;1.42;62.79
21706;BME280;11014;53.076;18.208;2024-03-07T00:28:24;102538.72;;;1.39;62.72
21706;BME280;11014;53.076;18.208;2024-03-07T00:30:57;102537.00;;;1.38;62.80
21706;BME280;11014;53.076;18.208;2024-03-07T00:33:26;102543.53;;;1.34;62.96
21706;BME280;11014;53.076;18.208;2024-03-07T00:36:09;102540.03;;;1.33;62.58
21706;BME280;11014;53.076;18.208;2024-03-07T00:38:41;102527.91;;;1.31;62.73
21706;BME280;11014;53.076;18.208;2024-03-07T00:41:10;102532.44;;;1.29;62.65
21706;BME280;11014;53.076;18.208;2024-03-07T00:43:38;102529.09;;;1.27;63.01
21706;BME280;11014;53.076;18.208;2024-03-07T00:46:07;102538.72;;;1.28;62.84
21706;BME280;11014;53.076;18.208;2024-03-07T00:48:35;102537.03;;;1.27;62.87
21706;BME280;11014;53.076;18.208;2024-03-07T00:51:04;102537.03;;;1.27;62.98
21706;BME280;11014;53.076;18.208;2024-03-07T00:53:33;102538.03;;;1.26;63.05
21706;BME280;11014;53.076;18.208;2024-03-07T00:56:01;102534.63;;;1.24;62.83
21706;BME280;11014;53.076;18.208;2024-03-07T00:58:31;102527.66;;;1.23;62.93
21706;BME280;11014;53.076;18.208;2024-03-07T01:01:00;102535.72;;;1.21;62.98
21706;BME280;11014;53.076;18.208;2024-03-07T01:03:28;102533.44;;;1.16;62.78
21706;BME280;11014;53.076;18.208;2024-03-07T01:05:57;102530.91;;;1.15;62.93
21706;BME280;11014;53.076;18.208;2024-03-07T01:08:26;102529.13;;;1.15;62.75
21706;BME280;11014;53.076;18.208;2024-03-07T01:10:55;102535.41;;;1.14;62.76
21706;BME280;11014;53.076;18.208;2024-03-07T01:13:26;102528.66;;;1.10;62.84
21706;BME280;11014;53.076;18.208;2024-03-07T01:15:54;102535.88;;;1.08;62.72
21706;BME280;11014;53.076;18.208;2024-03-07T01:18:23;102537.81;;;1.06;62.87
21706;BME280;11014;53.076;18.208;2024-03-07T01:20:51;102529.38;;;1.01;62.65
21706;BME280;11014;53.076;18.208;2024-03-07T01:23:21;102520.72;;;0.99;62.80
21706;BME280;11014;53.076;18.208;2024-03-07T01:25:49;102528.78;;;0.98;62.90
21706;BME280;11014;53.076;18.208;2024-03-07T01:31:38;102522.91;;;0.94;62.52
21706;BME280;11014;53.076;18.208;2024-03-07T01:34:06;102528.66;;;0.88;62.52
21706;BME280;11014;53.076;18.208;2024-03-07T01:36:35;102523.63;;;0.85;62.78
21706;BME280;11014;53.076;18.208;2024-03-07T01:39:03;102522.75;;;0.85;62.98
21706;BME280;11014;53.076;18.208;2024-03-07T01:41:32;102528.31;;;0.82;62.89
21706;BME280;11014;53.076;18.208;2024-03-07T01:44:02;102520.50;;;0.80;62.74
21706;BME280;11014;53.076;18.208;2024-03-07T01:46:31;102528.44;;;0.80;62.70
21706;BME280;11014;53.076;18.208;2024-03-07T01:49:00;102526.03;;;0.77;62.77
21706;BME280;11014;53.076;18.208;2024-03-07T01:51:29;102527.94;;;0.75;62.85
21706;BME280;11014;53.076;18.208;2024-03-07T01:53:58;102522.91;;;0.72;62.85
21706;BME280;11014;53.076;18.208;2024-03-07T01:56:26;102522.06;;;0.72;62.79
21706;BME280;11014;53.076;18.208;2024-03-07T01:58:55;102520.50;;;0.69;62.84
21706;BME280;11014;53.076;18.208;2024-03-07T02:01:25;102526.75;;;0.68;62.70
21706;BME280;11014;53.076;18.208;2024-03-07T02:03:54;102517.28;;;0.66;62.70
21706;BME280;11014;53.076;18.208;2024-03-07T02:06:23;102516.66;;;0.62;62.86
21706;BME280;11014;53.076;18.208;2024-03-07T02:09:10;102525.78;;;0.69;62.79
21706;BME280;11014;53.076;18.208;2024-03-07T02:11:39;102523.88;;;0.60;62.58
21706;BME280;11014;53.076;18.208;2024-03-07T02:14:08;102518.81;;;0.57;62.66
21706;BME280;11014;53.076;18.208;2024-03-07T02:16:36;102513.78;;;0.54;62.74
21706;BME280;11014;53.076;18.208;2024-03-07T02:19:05;102513.16;;;0.50;62.69
21706;BME280;11014;53.076;18.208;2024-03-07T02:21:35;102510.66;;;0.49;62.64
21706;BME280;11014;53.076;18.208;2024-03-07T02:24:11;102520.47;;;0.47;62.75
21706;BME280;11014;53.076;18.208;2024-03-07T02:26:39;102514.72;;;0.42;62.76
21706;BME280;11014;53.076;18.208;2024-03-07T02:29:08;102519.16;;;0.41;62.69
21706;BME280;11014;53.076;18.208;2024-03-07T02:31:36;102513.28;;;0.38;62.95
21706;BME280;11014;53.076;18.208;2024-03-07T02:34:05;102510.63;;;0.38;62.65
21706;BME280;11014;53.076;18.208;2024-03-07T02:36:36;102515.19;;;0.36;62.95
21706;BME280;11014;53.076;18.208;2024-03-07T02:39:04;102516.88;;;0.37;63.01
21706;BME280;11014;53.076;18.208;2024-03-07T02:41:34;102511.59;;;0.37;63.07
21706;BME280;11014;53.076;18.208;2024-03-07T02:44:03;102523.00;;;0.37;63.09
21706;BME280;11014;53.076;18.208;2024-03-07T02:46:32;102513.38;;;0.36;63.09
21706;BME280;11014;53.076;18.208;2024-03-07T02:49:00;102523.25;;;0.34;63.08
21706;BME280;11014;53.076;18.208;2024-03-07T02:51:29;102517.34;;;0.31;62.86
21706;BME280;11014;53.076;18.208;2024-03-07T02:53:58;102520.97;;;0.30;62.89
21706;BME280;11014;53.076;18.208;2024-03-07T02:56:27;102528.16;;;0.28;62.89
21706;BME280;11014;53.076;18.208;2024-03-07T02:58:55;102520.34;;;0.26;63.16
21706;BME280;11014;53.076;18.208;2024-03-07T03:01:24;102517.81;;;0.25;62.90
21706;BME280;11014;53.076;18.208;2024-03-07T03:03:53;102526.72;;;0.24;62.89
21706;BME280;11014;53.076;18.208;2024-03-07T03:06:22;102525.16;;;0.21;62.90
21706;BME280;11014;53.076;18.208;2024-03-07T03:08:50;102530.53;;;0.20;62.77
21706;BME280;11014;53.076;18.208;2024-03-07T03:11:19;102521.16;;;0.16;62.69
21706;BME280;11014;53.076;18.208;2024-03-07T03:13:48;102530.91;;;0.15;62.89
21706;BME280;11014;53.076;18.208;2024-03-07T03:16:18;102525.00;;;0.12;62.82
21706;BME280;11014;53.076;18.208;2024-03-07T03:19:05;102522.34;;;0.12;62.58
21706;BME280;11014;53.076;18.208;2024-03-07T03:21:34;102527.13;;;0.07;62.44
21706;BME280;11014;53.076;18.208;2024-03-07T03:24:02;102537.84;;;0.05;62.51
21706;BME280;11014;53.076;18.208;2024-03-07T03:26:31;102531.00;;;0.03;62.61
21706;BME280;11014;53.076;18.208;2024-03-07T03:29:00;102531.94;;;0.02;62.61
21706;BME280;11014;53.076;18.208;2024-03-07T03:31:28;102524.97;;;0.00;62.72
21706;BME280;11014;53.076;18.208;2024-03-07T03:33:56;102525.19;;;-0.03;62.57
21706;BME280;11014;53.076;18.208;2024-03-07T03:36:25;102531.44;;;-0.04;62.74
21706;BME280;11014;53.076;18.208;2024-03-07T03:38:53;102535.16;;;-0.06;62.69
21706;BME280;11014;53.076;18.208;2024-03-07T03:41:22;102529.13;;;-0.08;62.45
21706;BME280;11014;53.076;18.208;2024-03-07T03:43:51;102530.94;;;-0.09;62.38
21706;BME280;11014;53.076;18.208;2024-03-07T03:46:20;102529.25;;;-0.10;62.51
21706;BME280;11014;53.076;18.208;2024-03-07T03:48:48;102532.84;;;-0.11;62.48
21706;BME280;11014;53.076;18.208;2024-03-07T03:51:19;102533.06;;;-0.14;62.65
21706;BME280;11014;53.076;18.208;2024-03-07T03:53:49;102529.63;;;-0.14;62.62
21706;BME280;11014;53.076;18.208;2024-03-07T03:56:20;102529.47;;;-0.13;62.53
21706;BME280;11014;53.076;18.208;2024-03-07T03:58:48;102527.78;;;-0.14;62.61
21706;BME280;11014;53.076;18.208;2024-03-07T04:01:17;102531.41;;;-0.15;62.45
21706;BME280;11014;53.076;18.208;2024-03-07T04:03:46;102526.13;;;-0.15;62.34
21706;BME280;11014;53.076;18.208;2024-03-07T04:06:15;102523.59;;;-0.16;62.35
21706;BME280;11014;53.076;18.208;2024-03-07T04:08:44;102529.00;;;-0.18;62.38
21706;BME280;11014;53.076;18.208;2024-03-07T04:11:14;102528.28;;;-0.20;62.25
21706;BME280;11014;53.076;18.208;2024-03-07T04:14:17;102521.47;;;-0.11;62.40
21706;BME280;11014;53.076;18.208;2024-03-07T04:16:52;102516.22;;;-0.24;62.16
21706;BME280;11014;53.076;18.208;2024-03-07T04:19:25;102524.38;;;-0.27;62.01
21706;BME280;11014;53.076;18.208;2024-03-07T04:21:54;102521.97;;;-0.30;62.11
21706;BME280;11014;53.076;18.208;2024-03-07T04:24:22;102527.47;;;-0.33;62.19
21706;BME280;11014;53.076;18.208;2024-03-07T04:26:51;102528.44;;;-0.34;62.19
21706;BME280;11014;53.076;18.208;2024-03-07T04:29:21;102533.94;;;-0.37;62.39
21706;BME280;11014;53.076;18.208;2024-03-07T04:31:50;102541.88;;;-0.37;62.10
21706;BME280;11014;53.076;18.208;2024-03-07T04:34:18;102543.56;;;-0.36;62.10
21706;BME280;11014;53.076;18.208;2024-03-07T04:36:47;102540.94;;;-0.36;62.02
21706;BME280;11014;53.076;18.208;2024-03-07T04:39:16;102541.03;;;-0.37;62.05
21706;BME280;11014;53.076;18.208;2024-03-07T04:41:56;102539.22;;;-0.37;62.00
21706;BME280;11014;53.076;18.208;2024-03-07T04:44:29;102548.94;;;-0.37;62.16
21706;BME280;11014;53.076;18.208;2024-03-07T04:46:59;102540.41;;;-0.41;61.98
21706;BME280;11014;53.076;18.208;2024-03-07T04:49:29;102543.16;;;-0.42;62.05
21706;BME280;11014;53.076;18.208;2024-03-07T04:52:00;102540.66;;;-0.44;61.99
21706;BME280;11014;53.076;18.208;2024-03-07T04:54:30;102543.38;;;-0.45;61.79
21706;BME280;11014;53.076;18.208;2024-03-07T04:57:00;102542.53;;;-0.46;61.99
21706;BME280;11014;53.076;18.208;2024-03-07T04:59:28;102542.75;;;-0.49;61.84
21706;BME280;11014;53.076;18.208;2024-03-07T05:01:57;102543.75;;;-0.50;61.79
21706;BME280;11014;53.076;18.208;2024-03-07T05:04:26;102549.97;;;-0.51;61.94
21706;BME280;11014;53.076;18.208;2024-03-07T05:06:57;102545.66;;;-0.52;61.79
21706;BME280;11014;53.076;18.208;2024-03-07T05:09:26;102545.66;;;-0.52;61.79
21706;BME280;11014;53.076;18.208;2024-03-07T05:11:57;102550.94;;;-0.52;61.92
21706;BME280;11014;53.076;18.208;2024-03-07T05:14:26;102555.38;;;-0.52;61.69
21706;BME280;11014;53.076;18.208;2024-03-07T05:16:54;102549.31;;;-0.54;61.91
21706;BME280;11014;53.076;18.208;2024-03-07T05:27:42;102564.91;;;-0.39;61.23
21706;BME280;11014;53.076;18.208;2024-03-07T05:30:11;102567.06;;;-0.44;61.29
21706;BME280;11014;53.076;18.208;2024-03-07T05:32:41;102562.72;;;-0.45;61.51
21706;BME280;11014;53.076;18.208;2024-03-07T05:35:10;102563.44;;;-0.43;61.67
21706;BME280;11014;53.076;18.208;2024-03-07T05:37:39;102569.22;;;-0.38;61.56
21706;BME280;11014;53.076;18.208;2024-03-07T05:40:16;102569.72;;;-0.33;61.63
21706;BME280;11014;53.076;18.208;2024-03-07T05:42:44;102574.78;;;-0.30;61.53
21706;BME280;11014;53.076;18.208;2024-03-07T05:45:13;102567.50;;;-0.26;61.61
21706;BME280;11014;53.076;18.208;2024-03-07T05:47:46;102576.97;;;-0.24;61.76
21706;BME280;11014;53.076;18.208;2024-03-07T05:50:17;102576.97;;;-0.24;61.57
21706;BME280;11014;53.076;18.208;2024-03-07T05:52:46;102576.75;;;-0.21;61.56
21706;BME280;11014;53.076;18.208;2024-03-07T05:55:17;102575.59;;;-0.17;61.71
21706;BME280;11014;53.076;18.208;2024-03-07T05:57:47;102576.19;;;-0.13;61.77
21706;BME280;11014;53.076;18.208;2024-03-07T06:00:16;102576.19;;;-0.13;61.86
21706;BME280;11014;53.076;18.208;2024-03-07T06:02:56;102571.31;;;-0.07;61.63
21706;BME280;11014;53.076;18.208;2024-03-07T06:05:26;102575.50;;;-0.04;61.74
21706;BME280;11014;53.076;18.208;2024-03-07T06:07:55;102572.50;;;0.00;61.79
21706;BME280;11014;53.076;18.208;2024-03-07T06:10:25;102585.28;;;0.07;61.56
21706;BME280;11014;53.076;18.208;2024-03-07T06:12:54;102582.41;;;0.10;61.63
21706;BME280;11014;53.076;18.208;2024-03-07T06:15:43;102582.53;;;0.19;61.87
21706;BME280;11014;53.076;18.208;2024-03-07T06:18:12;102580.41;;;0.24;61.73
21706;BME280;11014;53.076;18.208;2024-03-07T06:20:45;102588.00;;;0.29;61.93
21706;BME280;11014;53.076;18.208;2024-03-07T06:23:14;102588.38;;;0.35;61.74
21706;BME280;11014;53.076;18.208;2024-03-07T06:25:45;102589.59;;;0.42;61.77
21706;BME280;11014;53.076;18.208;2024-03-07T06:28:19;102585.63;;;0.48;62.07
21706;BME280;11014;53.076;18.208;2024-03-07T06:30:48;102593.09;;;0.54;61.85
21706;BME280;11014;53.076;18.208;2024-03-07T06:33:17;102595.16;;;0.62;61.78
21706;BME280;11014;53.076;18.208;2024-03-07T06:36:16;102591.56;;;0.74;62.13
21706;BME280;11014;53.076;18.208;2024-03-07T06:38:44;102598.06;;;0.81;62.13
21706;BME280;11014;53.076;18.208;2024-03-07T06:41:13;102591.22;;;0.89;62.09
21706;BME280;11014;53.076;18.208;2024-03-07T06:43:45;102594.81;;;0.99;62.19
21706;BME280;11014;53.076;18.208;2024-03-07T06:46:14;102599.41;;;1.08;62.29
21706;BME280;11014;53.076;18.208;2024-03-07T06:48:44;102596.00;;;1.17;62.28
21706;BME280;11014;53.076;18.208;2024-03-07T06:51:12;102597.06;;;1.26;62.33
21706;BME280;11014;53.076;18.208;2024-03-07T06:53:41;102602.38;;;1.37;62.32
21706;BME280;11014;53.076;18.208;2024-03-07T06:56:10;102600.69;;;1.47;62.26
21706;BME280;11014;53.076;18.208;2024-03-07T06:58:39;102600.75;;;1.57;62.19
21706;BME280;11014;53.076;18.208;2024-03-07T07:01:09;102598.09;;;1.68;62.38
21706;BME280;11014;53.076;18.208;2024-03-07T07:03:40;102605.75;;;1.82;62.53
21706;BME280;11014;53.076;18.208;2024-03-07T07:06:11;102604.72;;;1.94;62.68
21706;BME280;11014;53.076;18.208;2024-03-07T07:08:40;102598.69;;;2.03;62.59
21706;BME280;11014;53.076;18.208;2024-03-07T07:11:09;102602.13;;;2.15;62.86
21706;BME280;11014;53.076;18.208;2024-03-07T07:13:40;102597.63;;;2.26;62.79
21706;BME280;11014;53.076;18.208;2024-03-07T07:16:11;102606.34;;;2.38;62.83
21706;BME280;11014;53.076;18.208;2024-03-07T07:18:39;102607.13;;;2.50;62.81
21706;BME280;11014;53.076;18.208;2024-03-07T07:21:08;102606.09;;;2.62;62.81
21706;BME280;11014;53.076;18.208;2024-03-07T07:23:39;102603.81;;;2.78;62.90
21706;BME280;11014;53.076;18.208;2024-03-07T07:26:08;102598.97;;;2.92;63.11
21706;BME280;11014;53.076;18.208;2024-03-07T07:28:36;102601.16;;;3.08;63.35
21706;BME280;11014;53.076;18.208;2024-03-07T07:31:05;102604.16;;;3.24;63.42
21706;BME280;11014;53.076;18.208;2024-03-07T07:33:34;102612.56;;;3.39;63.27
21706;BME280;11014;53.076;18.208;2024-03-07T07:36:03;102608.69;;;3.52;63.73
21706;BME280;11014;53.076;18.208;2024-03-07T07:38:32;102598.69;;;3.66;63.36
21706;BME280;11014;53.076;18.208;2024-03-07T07:41:01;102605.53;;;3.78;63.70
21706;BME280;11014;53.076;18.208;2024-03-07T07:43:29;102609.06;;;3.88;63.42
21706;BME280;11014;53.076;18.208;2024-03-07T07:46:10;102611.28;;;4.02;63.68
21706;BME280;11014;53.076;18.208;2024-03-07T07:48:39;102598.84;;;4.12;63.58
21706;BME280;11014;53.076;18.208;2024-03-07T07:51:08;102603.31;;;4.21;63.88
21706;BME280;11014;53.076;18.208;2024-03-07T07:53:37;102604.16;;;4.31;64.17
21706;BME280;11014;53.076;18.208;2024-03-07T07:56:07;102601.34;;;4.42;64.23
21706;BME280;11014;53.076;18.208;2024-03-07T07:58:36;102599.50;;;4.52;63.82
21706;BME280;11014;53.076;18.208;2024-03-07T08:01:05;102594.16;;;4.62;64.10
21706;BME280;11014;53.076;18.208;2024-03-07T08:03:36;102603.66;;;4.74;64.06
21706;BME280;11014;53.076;18.208;2024-03-07T08:06:05;102600.81;;;4.85;63.99
21706;BME280;11014;53.076;18.208;2024-03-07T08:08:34;102593.78;;;4.94;64.10
21706;BME280;11014;53.076;18.208;2024-03-07T08:11:03;102595.25;;;5.06;64.01
21706;BME280;11014;53.076;18.208;2024-03-07T08:13:31;102597.06;;;5.15;64.13
21706;BME280;11014;53.076;18.208;2024-03-07T08:16:00;102590.16;;;5.22;63.97
21706;BME280;11014;53.076;18.208;2024-03-07T08:18:28;102591.94;;;5.31;64.28
21706;BME280;11014;53.076;18.208;2024-03-07T08:20:58;102592.72;;;5.41;63.91
21706;BME280;11014;53.076;18.208;2024-03-07T08:23:27;102585.53;;;5.51;64.04
21706;BME280;11014;53.076;18.208;2024-03-07T08:25:58;102583.31;;;5.64;64.02
21706;BME280;11014;53.076;18.208;2024-03-07T08:28:27;102595.03;;;5.71;64.01
21706;BME280;11014;53.076;18.208;2024-03-07T08:30:56;102589.97;;;5.78;64.02
21706;BME280;11014;53.076;18.208;2024-03-07T08:33:24;102581.22;;;5.85;63.86
21706;BME280;11014;53.076;18.208;2024-03-07T08:35:53;102589.00;;;5.96;63.92
21706;BME280;11014;53.076;18.208;2024-03-07T08:38:21;102583.75;;;6.05;63.97
21706;BME280;11014;53.076;18.208;2024-03-07T08:40:50;102587.19;;;6.15;64.14
21706;BME280;11014;53.076;18.208;2024-03-07T08:43:18;102578.41;;;6.22;63.98
21706;BME280;11014;53.076;18.208;2024-03-07T08:45:47;102587.16;;;6.32;63.87
21706;BME280;11014;53.076;18.208;2024-03-07T08:48:16;102584.41;;;6.42;64.09
21706;BME280;11014;53.076;18.208;2024-03-07T08:50:45;102593.16;;;6.52;63.43
21706;BME280;11014;53.076;18.208;2024-03-07T08:53:13;102587.84;;;6.60;63.69
21706;BME280;11014;53.076;18.208;2024-03-07T08:55:42;102583.56;;;6.67;63.86
21706;BME280;11014;53.076;18.208;2024-03-07T08:58:11;102585.59;;;6.73;63.28
21706;BME280;11014;53.076;18.208;2024-03-07T09:00:39;102576.66;;;6.82;63.56
21706;BME280;11014;53.076;18.208;2024-03-07T09:03:08;102586.06;;;6.94;63.68
21706;BME280;11014;53.076;18.208;2024-03-07T09:05:41;102579.44;;;7.06;63.34
21706;BME280;11014;53.076;18.208;2024-03-07T09:08:10;102581.16;;;7.15;63.18
21706;BME280;11014;53.076;18.208;2024-03-07T09:10:40;102577.50;;;7.25;63.29
21706;BME280;11014;53.076;18.208;2024-03-07T09:13:10;102586.25;;;7.35;63.41
21706;BME280;11014;53.076;18.208;2024-03-07T09:15:40;102590.59;;;7.44;63.18
21706;BME280;11014;53.076;18.208;2024-03-07T09:18:08;102586.63;;;7.48;62.62
21706;BME280;11014;53.076;18.208;2024-03-07T09:20:38;102580.13;;;7.58;62.66
21706;BME280;11014;53.076;18.208;2024-03-07T09:23:07;102574.63;;;7.68;63.06
21706;BME280;11014;53.076;18.208;2024-03-07T09:25:36;102579.84;;;7.78;62.69
21706;BME280;11014;53.076;18.208;2024-03-07T09:28:04;102586.72;;;7.88;62.69
21706;BME280;11014;53.076;18.208;2024-03-07T09:30:35;102587.22;;;7.92;61.42
21706;BME280;11014;53.076;18.208;2024-03-07T09:33:07;102592.09;;;8.04;62.10
21706;BME280;11014;53.076;18.208;2024-03-07T09:35:40;102577.53;;;8.15;62.37
21706;BME280;11014;53.076;18.208;2024-03-07T09:38:09;102579.03;;;8.17;60.83
21706;BME280;11014;53.076;18.208;2024-03-07T09:40:37;102585.13;;;8.27;61.25
21706;BME280;11014;53.076;18.208;2024-03-07T09:43:07;102580.75;;;8.34;60.64
21706;BME280;11014;53.076;18.208;2024-03-07T09:45:40;102581.41;;;8.45;60.77
21706;BME280;11014;53.076;18.208;2024-03-07T09:48:10;102578.91;;;8.51;59.69
21706;BME280;11014;53.076;18.208;2024-03-07T09:50:40;102588.75;;;8.59;59.74
21706;BME280;11014;53.076;18.208;2024-03-07T09:53:11;102586.91;;;8.67;59.68
21706;BME280;11014;53.076;18.208;2024-03-07T09:55:39;102588.56;;;8.76;59.53
21706;BME280;11014;53.076;18.208;2024-03-07T09:58:10;102583.69;;;8.80;57.60
21706;BME280;11014;53.076;18.208;2024-03-07T10:00:41;102589.84;;;8.88;58.23
21706;BME280;11014;53.076;18.208;2024-03-07T10:03:12;102589.34;;;9.01;57.71
21706;BME280;11014;53.076;18.208;2024-03-07T10:05:44;102586.28;;;9.12;57.02
21706;BME280;11014;53.076;18.208;2024-03-07T10:08:13;102586.91;;;9.22;56.58
21706;BME280;11014;53.076;18.208;2024-03-07T10:10:44;102587.91;;;9.21;53.91
21706;BME280;11014;53.076;18.208;2024-03-07T10:13:13;102573.66;;;9.29;54.48
21706;BME280;11014;53.076;18.208;2024-03-07T10:15:42;102578.78;;;9.38;54.83
21706;BME280;11014;53.076;18.208;2024-03-07T10:18:11;102580.78;;;9.44;53.19
21706;BME280;11014;53.076;18.208;2024-03-07T10:20:43;102585.59;;;9.80;52.08
21706;BME280;11014;53.076;18.208;2024-03-07T10:23:19;102577.75;;;9.70;52.89
21706;BME280;11014;53.076;18.208;2024-03-07T10:25:52;102585.66;;;9.72;50.47
21706;BME280;11014;53.076;18.208;2024-03-07T10:28:26;102576.34;;;9.82;51.54
21706;BME280;11014;53.076;18.208;2024-03-07T10:30:55;102576.31;;;9.90;49.91
21706;BME280;11014;53.076;18.208;2024-03-07T10:33:27;102570.53;;;10.01;48.72
21706;BME280;11014;53.076;18.208;2024-03-07T10:36:06;102569.13;;;10.14;47.98
21706;BME280;11014;53.076;18.208;2024-03-07T10:38:38;102563.50;;;10.23;47.83
21706;BME280;11014;53.076;18.208;2024-03-07T10:41:08;102570.75;;;10.37;48.75
21706;BME280;11014;53.076;18.208;2024-03-07T10:43:40;102563.91;;;10.49;47.79
21706;BME280;11014;53.076;18.208;2024-03-07T10:46:14;102571.88;;;10.57;47.55
21706;BME280;11014;53.076;18.208;2024-03-07T10:48:46;102565.06;;;10.69;47.63
21706;BME280;11014;53.076;18.208;2024-03-07T10:51:21;102556.53;;;10.81;46.97
21706;BME280;11014;53.076;18.208;2024-03-07T10:57:03;102566.38;;;11.03;46.62
21706;BME280;11014;53.076;18.208;2024-03-07T10:59:37;102557.34;;;11.10;47.26
21706;BME280;11014;53.076;18.208;2024-03-07T11:02:42;102565.88;;;11.28;45.42
21706;BME280;11014;53.076;18.208;2024-03-07T11:05:15;102550.94;;;11.26;45.91
21706;BME280;11014;53.076;18.208;2024-03-07T11:07:44;102552.41;;;11.28;44.75
21706;BME280;11014;53.076;18.208;2024-03-07T11:10:13;102548.81;;;11.36;45.44
21706;BME280;11014;53.076;18.208;2024-03-07T11:12:43;102543.69;;;11.41;45.10
21706;BME280;11014;53.076;18.208;2024-03-07T11:15:12;102555.09;;;11.43;44.04
21706;BME280;11014;53.076;18.208;2024-03-07T11:17:49;102546.53;;;11.54;44.73
21706;BME280;11014;53.076;18.208;2024-03-07T11:20:39;102541.84;;;11.77;44.32
21706;BME280;11014;53.076;18.208;2024-03-07T11:23:28;102543.63;;;11.92;44.20
21706;BME280;11014;53.076;18.208;2024-03-07T11:26:11;102542.22;;;11.96;41.87
21706;BME280;11014;53.076;18.208;2024-03-07T11:28:42;102540.41;;;11.81;43.01
21706;BME280;11014;53.076;18.208;2024-03-07T11:31:25;102542.22;;;11.96;43.27
21706;BME280;11014;53.076;18.208;2024-03-07T11:34:22;102540.56;;;12.16;42.76
21706;BME280;11014;53.076;18.208;2024-03-07T11:36:58;102536.19;;;12.15;42.47
21706;BME280;11014;53.076;18.208;2024-03-07T11:39:42;102533.41;;;12.29;42.40
21706;BME280;11014;53.076;18.208;2024-03-07T11:44:57;102523.75;;;12.41;42.31
21706;BME280;11014;53.076;18.208;2024-03-07T11:47:26;102524.41;;;12.50;42.19
21706;BME280;11014;53.076;18.208;2024-03-07T11:49:58;102530.28;;;12.60;41.85
21706;BME280;11014;53.076;18.208;2024-03-07T11:52:28;102520.41;;;12.67;41.07
21706;BME280;11014;53.076;18.208;2024-03-07T11:54:57;102516.69;;;12.75;41.99
21706;BME280;11014;53.076;18.208;2024-03-07T11:57:33;102523.63;;;12.90;41.92
21706;BME280;11014;53.076;18.208;2024-03-07T12:00:02;102520.44;;;13.08;40.86
21706;BME280;11014;53.076;18.208;2024-03-07T12:02:41;102507.16;;;14.06;40.75
21706;BME280;11014;53.076;18.208;2024-03-07T12:05:12;102504.69;;;15.53;37.79
21706;BME280;11014;53.076;18.208;2024-03-07T12:07:44;102504.97;;;16.75;36.00
21706;BME280;11014;53.076;18.208;2024-03-07T12:10:13;102496.59;;;17.72;34.78
21706;BME280;11014;53.076;18.208;2024-03-07T12:12:42;102491.34;;;18.58;33.32
21706;BME280;11014;53.076;18.208;2024-03-07T12:15:12;102495.59;;;19.29;32.13
21706;BME280;11014;53.076;18.208;2024-03-07T12:17:49;102496.13;;;20.21;31.09
21706;BME280;11014;53.076;18.208;2024-03-07T12:20:19;102489.16;;;21.06;30.11
21706;BME280;11014;53.076;18.208;2024-03-07T12:22:56;102490.59;;;21.62;27.99
21706;BME280;11014;53.076;18.208;2024-03-07T12:25:25;102485.72;;;21.91;27.60
21706;BME280;11014;53.076;18.208;2024-03-07T12:28:07;102481.16;;;22.43;25.98
21706;BME280;11014;53.076;18.208;2024-03-07T12:33:15;102477.34;;;22.96;26.60
21706;BME280;11014;53.076;18.208;2024-03-07T12:35:48;102474.34;;;23.03;24.65
21706;BME280;11014;53.076;18.208;2024-03-07T12:38:21;102460.66;;;23.03;24.75
21706;BME280;11014;53.076;18.208;2024-03-07T12:41:05;102478.31;;;23.37;24.79
21706;BME280;11014;53.076;18.208;2024-03-07T12:43:35;102467.63;;;23.51;25.19
21706;BME280;11014;53.076;18.208;2024-03-07T12:46:05;102461.88;;;23.83;24.25
21706;BME280;11014;53.076;18.208;2024-03-07T12:48:34;102460.22;;;24.02;24.22
21706;BME280;11014;53.076;18.208;2024-03-07T12:51:03;102456.91;;;24.35;24.18
21706;BME280;11014;53.076;18.208;2024-03-07T12:53:32;102455.75;;;24.51;23.68
21706;BME280;11014;53.076;18.208;2024-03-07T12:56:03;102452.75;;;24.43;23.39
21706;BME280;11014;53.076;18.208;2024-03-07T12:58:32;102451.91;;;24.52;23.38
21706;BME280;11014;53.076;18.208;2024-03-07T13:01:01;102448.09;;;24.43;23.69
21706;BME280;11014;53.076;18.208;2024-03-07T13:03:30;102443.19;;;24.35;23.84
21706;BME280;11014;53.076;18.208;2024-03-07T13:06:01;102446.69;;;24.51;24.22
21706;BME280;11014;53.076;18.208;2024-03-07T13:08:30;102438.66;;;24.74;23.82
21706;BME280;11014;53.076;18.208;2024-03-07T13:10:59;102444.41;;;24.83;23.71
21706;BME280;11014;53.076;18.208;2024-03-07T13:13:29;102439.72;;;24.89;22.59
21706;BME280;11014;53.076;18.208;2024-03-07T13:15:59;102441.41;;;24.80;22.19
21706;BME280;11014;53.076;18.208;2024-03-07T13:18:28;102441.13;;;24.86;22.26
21706;BME280;11014;53.076;18.208;2024-03-07T13:20:57;102437.56;;;24.81;22.60
21706;BME280;11014;53.076;18.208;2024-03-07T13:23:25;102430.97;;;24.71;23.18